createdAt,value
2023-09-23T00:00:19.478Z,6.40
2023-09-23T00:02:46.463Z,4.72
2023-09-23T00:05:16.417Z,7.93
2023-09-23T00:07:44.962Z,4.68
2023-09-23T00:10:12.524Z,5.43
2023-09-23T00:12:43.917Z,6.50
2023-09-23T00:15:14.526Z,5.60
2023-09-23T00:17:42.282Z,3.63
2023-09-23T00:20:17.609Z,4.65
2023-09-23T00:22:48.738Z,5.25
2023-09-23T00:25:20.123Z,4.45
2023-09-23T00:27:47.251Z,4.20
2023-09-23T00:30:14.668Z,4.40
2023-09-23T00:32:43.068Z,3.78
2023-09-23T00:35:13.141Z,9.68
2023-09-23T00:37:41.525Z,10.18
2023-09-23T00:40:18.739Z,3.95
2023-09-23T00:42:49.616Z,4.10
2023-09-23T00:45:21.457Z,9.57
2023-09-23T00:47:48.315Z,4.03
2023-09-23T00:50:22.073Z,4.10
2023-09-23T00:52:53.204Z,7.70
2023-09-23T00:55:27.181Z,3.90
2023-09-23T00:57:54.338Z,7.75
2023-09-23T01:00:28.275Z,6.50
2023-09-23T01:02:59.356Z,7.28
2023-09-23T01:05:31.229Z,5.32
2023-09-23T01:08:12.291Z,7.18
2023-09-23T01:10:40.373Z,4.28
2023-09-23T01:13:09.827Z,5.38
2023-09-23T01:15:47.787Z,4.43
2023-09-23T01:18:14.798Z,5.53
2023-09-23T01:20:48.521Z,4.63
2023-09-23T01:23:15.332Z,4.90
2023-09-23T01:25:42.227Z,3.22
2023-09-23T01:28:19.564Z,5.00
2023-09-23T01:30:46.989Z,4.95
2023-09-23T01:33:17.396Z,3.53
2023-09-23T01:35:45.071Z,3.55
2023-09-23T01:38:12.470Z,6.43
2023-09-23T01:40:44.484Z,5.00
2023-09-23T01:43:13.065Z,4.63
2023-09-23T01:45:40.663Z,4.53
2023-09-23T01:48:08.879Z,3.40
2023-09-23T01:50:35.770Z,4.22
2023-09-23T01:53:02.680Z,3.83
2023-09-23T01:55:30.679Z,6.28
2023-09-23T01:57:57.748Z,4.43
2023-09-23T02:00:29.967Z,5.40
2023-09-23T02:02:58.859Z,8.40
2023-09-23T02:05:30.495Z,4.35
2023-09-23T02:07:57.653Z,6.25
2023-09-23T02:10:27.821Z,6.55
2023-09-23T02:12:55.255Z,4.80
2023-09-23T02:15:22.057Z,6.95
2023-09-23T02:17:50.493Z,3.58
2023-09-23T02:20:20.927Z,3.72
2023-09-23T02:22:55.183Z,3.80
2023-09-23T02:25:26.407Z,8.25
2023-09-23T02:27:54.180Z,8.90
2023-09-23T02:30:21.265Z,5.82
2023-09-23T02:32:48.496Z,5.47
2023-09-23T02:35:17.145Z,6.55
2023-09-23T02:37:52.014Z,4.85
2023-09-23T02:40:19.694Z,3.53
2023-09-23T02:42:48.838Z,4.35
2023-09-23T02:45:17.948Z,4.47
2023-09-23T02:47:45.890Z,3.83
2023-09-23T02:50:15.709Z,2.85
2023-09-23T02:52:46.081Z,2.92
2023-09-23T02:55:16.125Z,2.65
2023-09-23T02:57:50.114Z,2.30
2023-09-23T03:00:18.889Z,5.63
2023-09-23T03:02:47.177Z,8.10
2023-09-23T03:05:17.804Z,2.65
2023-09-23T03:07:49.316Z,3.63
2023-09-23T03:10:20.751Z,3.13
2023-09-23T03:13:03.211Z,4.70
2023-09-23T03:15:52.139Z,2.22
2023-09-23T03:18:28.982Z,1.95
2023-09-23T03:20:56.706Z,2.03
2023-09-23T03:23:24.396Z,1.00
2023-09-23T03:25:52.547Z,1.70
2023-09-23T03:28:19.673Z,2.80
2023-09-23T03:30:50.109Z,2.05
2023-09-23T03:33:22.530Z,3.47
2023-09-23T03:35:50.524Z,2.60
2023-09-23T03:38:17.850Z,0.70
2023-09-23T03:40:55.832Z,2.17
2023-09-23T03:43:22.900Z,3.03
2023-09-23T03:45:51.694Z,2.78
2023-09-23T03:48:20.832Z,0.50
2023-09-23T03:50:54.605Z,0.45
2023-09-23T03:53:22.602Z,0.70
2023-09-23T03:55:50.999Z,1.02
2023-09-23T03:58:20.938Z,1.20
2023-09-23T04:00:48.431Z,1.50
2023-09-23T04:03:16.096Z,1.10
2023-09-23T04:05:43.114Z,0.30
2023-09-23T04:08:10.634Z,0.80
2023-09-23T04:10:40.810Z,0.60
2023-09-23T04:13:07.665Z,0.75
2023-09-23T04:15:34.452Z,0.68
2023-09-23T04:18:06.516Z,0.98
2023-09-23T04:20:33.358Z,0.40
2023-09-23T04:23:00.214Z,0.93
2023-09-23T04:25:27.058Z,0.40
2023-09-23T04:27:54.303Z,0.17
2023-09-23T04:30:21.127Z,2.33
2023-09-23T04:32:48.253Z,0.40
2023-09-23T04:35:17.442Z,0.38
2023-09-23T04:37:44.550Z,0.55
2023-09-23T04:40:15.739Z,2.88
2023-09-23T04:42:43.774Z,2.45
2023-09-23T04:45:12.215Z,1.20
2023-09-23T04:47:41.097Z,1.60
2023-09-23T04:50:13.047Z,0.95
2023-09-23T04:52:41.994Z,2.40
2023-09-23T04:55:09.293Z,0.40
2023-09-23T04:57:37.138Z,2.28
2023-09-23T05:00:05.932Z,1.48
2023-09-23T05:02:32.884Z,2.92
2023-09-23T05:04:59.999Z,1.42
2023-09-23T05:07:27.055Z,0.30
2023-09-23T05:09:56.845Z,0.73
2023-09-23T05:12:25.060Z,1.52
2023-09-23T05:14:54.327Z,0.45
2023-09-23T05:17:22.572Z,1.02
2023-09-23T05:19:49.531Z,0.65
2023-09-23T05:22:16.485Z,0.70
2023-09-23T05:24:48.489Z,0.70
2023-09-23T05:27:16.024Z,0.70
2023-09-23T05:29:44.610Z,2.22
2023-09-23T05:32:12.089Z,0.70
2023-09-23T05:34:43.733Z,1.38
2023-09-23T05:37:13.832Z,2.03
2023-09-23T05:39:47.028Z,0.93
2023-09-23T05:42:15.078Z,0.88
2023-09-23T05:44:42.421Z,0.60
2023-09-23T05:47:10.293Z,2.53
2023-09-23T05:49:39.717Z,2.20
2023-09-23T05:52:06.642Z,0.80
2023-09-23T05:54:33.508Z,1.15
2023-09-23T05:57:00.391Z,1.40
2023-09-23T05:59:28.153Z,1.17
2023-09-23T06:01:55.244Z,0.80
2023-09-23T06:04:22.082Z,0.70
2023-09-23T06:06:48.910Z,2.13
2023-09-23T06:09:16.379Z,1.70
2023-09-23T06:11:44.660Z,1.55
2023-09-23T06:14:13.062Z,2.78
2023-09-23T06:16:40.244Z,1.20
2023-09-23T06:19:08.957Z,1.75
2023-09-23T06:21:37.732Z,1.05
2023-09-23T06:24:04.741Z,1.30
2023-09-23T06:26:31.576Z,2.67
2023-09-23T06:28:59.120Z,1.67
2023-09-23T06:31:26.102Z,3.15
2023-09-23T06:33:53.010Z,2.85
2023-09-23T06:36:19.873Z,1.85
2023-09-23T06:38:46.676Z,1.40
2023-09-23T06:41:13.531Z,1.63
2023-09-23T06:43:41.222Z,1.52
2023-09-23T06:46:08.371Z,1.75
2023-09-23T06:48:35.692Z,1.92
2023-09-23T06:51:03.989Z,2.20
2023-09-23T06:53:31.813Z,2.17
2023-09-23T06:55:58.786Z,1.55
2023-09-23T06:58:25.660Z,3.50
2023-09-23T07:00:52.625Z,1.45
2023-09-23T07:03:19.622Z,1.90
2023-09-23T07:05:47.757Z,3.53
2023-09-23T07:08:15.575Z,1.40
2023-09-23T07:10:42.694Z,3.85
2023-09-23T07:13:12.917Z,1.23
2023-09-23T07:15:41.842Z,3.42
2023-09-23T07:18:09.571Z,3.58
2023-09-23T07:20:36.682Z,5.18
2023-09-23T07:23:04.099Z,4.22
2023-09-23T07:25:31.210Z,2.42
2023-09-23T07:28:01.063Z,3.53
2023-09-23T07:30:27.910Z,2.72
2023-09-23T07:32:54.781Z,2.67
2023-09-23T07:35:21.923Z,3.53
2023-09-23T07:37:48.909Z,2.80
2023-09-23T07:40:15.869Z,2.65
2023-09-23T07:42:42.985Z,2.22
2023-09-23T07:45:10.451Z,3.42
2023-09-23T07:47:37.462Z,3.78
2023-09-23T07:50:04.923Z,5.25
2023-09-23T07:52:35.388Z,4.65
2023-09-23T07:55:02.892Z,2.08
2023-09-23T07:57:29.692Z,4.72
2023-09-23T07:59:56.495Z,3.75
2023-09-23T08:02:23.354Z,6.50
2023-09-23T08:04:50.207Z,10.30
2023-09-23T08:07:17.220Z,4.10
2023-09-23T08:09:44.191Z,4.85
2023-09-23T08:12:10.913Z,4.45
2023-09-23T08:14:37.877Z,7.22
2023-09-23T08:17:05.323Z,10.68
2023-09-23T08:19:32.188Z,12.05
2023-09-23T08:21:59.007Z,6.97
2023-09-23T08:24:25.773Z,5.60
2023-09-23T08:26:54.526Z,7.90
2023-09-23T08:29:21.478Z,8.65
2023-09-23T08:31:48.446Z,8.80
2023-09-23T08:34:15.379Z,4.57
2023-09-23T08:36:42.099Z,5.70
2023-09-23T08:39:10.904Z,7.05
2023-09-23T08:41:37.685Z,10.48
2023-09-23T08:44:06.637Z,8.85
2023-09-23T08:46:34.257Z,7.95
2023-09-23T08:49:01.622Z,6.20
2023-09-23T08:51:28.968Z,6.68
2023-09-23T08:53:56.830Z,5.40
2023-09-23T08:56:23.739Z,5.95
2023-09-23T08:58:50.717Z,9.50
2023-09-23T09:01:18.401Z,11.90
2023-09-23T09:03:46.735Z,5.72
2023-09-23T09:06:17.962Z,10.75
2023-09-23T09:08:45.291Z,7.40
2023-09-23T09:11:13.216Z,6.45
2023-09-23T09:13:40.173Z,6.55
2023-09-23T09:16:07.537Z,8.70
2023-09-23T09:18:34.595Z,12.85
2023-09-23T09:21:02.266Z,13.30
2023-09-23T09:23:30.844Z,8.93
2023-09-23T09:25:57.864Z,7.85
2023-09-23T09:28:24.734Z,5.43
2023-09-23T09:31:01.313Z,6.88
2023-09-23T09:33:30.429Z,6.10
2023-09-23T09:35:58.091Z,4.95
2023-09-23T09:38:28.889Z,9.15
2023-09-23T09:41:06.770Z,5.45
2023-09-23T09:43:34.587Z,9.20
2023-09-23T09:46:09.745Z,10.38
2023-09-23T09:48:42.873Z,5.40
2023-09-23T09:51:15.063Z,7.93
2023-09-23T09:53:45.667Z,8.55
2023-09-23T09:56:14.583Z,6.07
2023-09-23T09:58:42.818Z,5.60
2023-09-23T10:01:13.117Z,5.75
2023-09-23T10:03:44.861Z,5.88
2023-09-23T10:06:20.614Z,9.68
2023-09-23T10:08:49.644Z,7.22
2023-09-23T10:11:17.659Z,3.85
2023-09-23T10:13:44.856Z,5.68
2023-09-23T10:16:20.461Z,6.93
2023-09-23T10:18:58.348Z,7.70
2023-09-23T10:21:28.967Z,6.25
2023-09-23T10:23:57.595Z,6.53
2023-09-23T10:26:30.290Z,12.20
2023-09-23T10:29:01.026Z,7.47
2023-09-23T10:31:32.357Z,6.88
2023-09-23T10:34:04.391Z,9.80
2023-09-23T10:36:31.554Z,7.38
2023-09-23T10:38:58.512Z,6.03
2023-09-23T10:41:38.058Z,7.97
2023-09-23T10:44:05.479Z,8.02
2023-09-23T10:46:33.065Z,7.30
2023-09-23T10:49:01.031Z,7.32
2023-09-23T10:51:28.415Z,8.95
2023-09-23T10:53:57.089Z,9.20
2023-09-23T10:56:26.136Z,10.18
2023-09-23T10:58:53.559Z,8.80
2023-09-23T11:01:22.215Z,9.93
2023-09-23T11:03:49.601Z,6.45
2023-09-23T11:06:18.125Z,9.32
2023-09-23T11:08:45.305Z,8.45
2023-09-23T11:11:14.104Z,7.10
2023-09-23T11:13:41.731Z,6.15
2023-09-23T11:16:12.044Z,8.40
2023-09-23T11:18:39.472Z,5.88
2023-09-23T11:21:06.793Z,7.40
2023-09-23T11:23:34.876Z,14.43
2023-09-23T11:26:02.071Z,12.57
2023-09-23T11:28:29.340Z,9.43
2023-09-23T11:30:57.532Z,8.23
2023-09-23T11:33:26.210Z,6.30
2023-09-23T11:35:55.630Z,9.20
2023-09-23T11:38:22.572Z,7.95
2023-09-23T11:40:49.652Z,6.57
2023-09-23T11:43:16.940Z,7.50
2023-09-23T11:45:44.397Z,9.48
2023-09-23T11:48:11.504Z,13.43
2023-09-23T11:50:39.363Z,5.82
2023-09-23T11:53:06.668Z,9.98
2023-09-23T11:55:34.502Z,5.57
2023-09-23T11:58:02.028Z,7.57
2023-09-23T12:00:29.850Z,6.90
2023-09-23T12:02:57.901Z,2.53
2023-09-23T12:05:30.672Z,5.20
2023-09-23T12:08:02.071Z,1.33
2023-09-23T12:10:30.464Z,4.68
2023-09-23T12:13:04.399Z,25.90
2023-09-23T12:15:35.526Z,4.60
2023-09-23T12:18:02.686Z,7.15
2023-09-23T12:20:29.709Z,8.13
2023-09-23T12:22:59.917Z,4.18
2023-09-23T12:25:27.035Z,4.88
2023-09-23T12:27:53.808Z,2.45
2023-09-23T12:30:20.955Z,3.55
2023-09-23T12:32:47.919Z,3.67
2023-09-23T12:35:15.029Z,4.15
2023-09-23T12:37:42.062Z,5.55
2023-09-23T12:40:11.036Z,4.60
2023-09-23T12:42:37.875Z,4.82
2023-09-23T12:45:06.593Z,5.47
2023-09-23T12:47:48.933Z,4.63
2023-09-23T12:50:20.419Z,6.05
2023-09-23T12:52:47.738Z,7.05
2023-09-23T12:55:14.573Z,6.03
2023-09-23T12:57:41.458Z,13.32
2023-09-23T13:00:09.061Z,5.13
2023-09-23T13:02:36.026Z,4.10
2023-09-23T13:05:03.771Z,6.88
2023-09-23T13:07:30.728Z,2.85
2023-09-23T13:09:57.590Z,4.43
2023-09-23T13:12:24.518Z,2.40
2023-09-23T13:14:51.440Z,1.48
2023-09-23T13:17:18.572Z,4.85
2023-09-23T13:19:45.834Z,4.43
2023-09-23T13:22:12.783Z,1.95
2023-09-23T13:24:39.573Z,2.78
2023-09-23T13:27:07.131Z,7.47
2023-09-23T13:29:34.228Z,4.75
2023-09-23T13:32:01.215Z,2.80
2023-09-23T13:34:28.222Z,5.70
2023-09-23T13:36:55.087Z,2.90
2023-09-23T13:39:21.910Z,2.08
2023-09-23T13:41:48.748Z,3.03
2023-09-23T13:44:15.672Z,3.95
2023-09-23T13:46:42.659Z,5.18
2023-09-23T13:49:09.458Z,3.58
2023-09-23T13:51:36.421Z,2.20
2023-09-23T13:54:04.000Z,5.28
2023-09-23T13:56:31.031Z,4.10
2023-09-23T13:58:58.001Z,2.50
2023-09-23T14:01:24.911Z,5.90
2023-09-23T14:03:53.124Z,4.15
2023-09-23T14:06:20.062Z,4.78
2023-09-23T14:08:47.033Z,2.97
2023-09-23T14:11:14.544Z,2.17
2023-09-23T14:13:41.714Z,2.47
2023-09-23T14:16:08.999Z,1.88
2023-09-23T14:18:36.394Z,2.03
2023-09-23T14:21:03.608Z,2.47
2023-09-23T14:23:31.845Z,7.32
2023-09-23T14:25:58.712Z,2.08
2023-09-23T14:28:26.130Z,2.40
2023-09-23T14:30:53.136Z,4.07
2023-09-23T14:33:20.056Z,5.05
2023-09-23T14:35:46.876Z,8.23
2023-09-23T14:38:13.846Z,5.80
2023-09-23T14:40:41.041Z,2.47
2023-09-23T14:43:07.805Z,5.13
2023-09-23T14:45:34.839Z,8.40
2023-09-23T14:48:01.885Z,3.47
2023-09-23T14:50:29.006Z,4.93
2023-09-23T14:52:57.144Z,3.60
2023-09-23T14:55:24.032Z,3.67
2023-09-23T14:57:51.034Z,2.17
2023-09-23T15:00:18.119Z,8.43
2023-09-23T15:02:45.458Z,4.57
2023-09-23T15:05:12.540Z,2.17
2023-09-23T15:07:39.973Z,3.28
2023-09-23T15:10:08.069Z,2.97
2023-09-23T15:12:36.457Z,4.00
2023-09-23T15:15:07.957Z,2.75
2023-09-23T15:17:39.429Z,4.32
2023-09-23T15:20:11.229Z,3.53
2023-09-23T15:22:39.019Z,4.65
2023-09-23T15:25:10.755Z,1.80
2023-09-23T15:27:38.343Z,1.92
2023-09-23T15:30:10.656Z,2.67
2023-09-23T15:32:38.777Z,2.05
2023-09-23T15:35:07.905Z,2.38
2023-09-23T15:37:35.145Z,1.95
2023-09-23T15:40:02.043Z,3.35
2023-09-23T15:42:30.492Z,3.58
2023-09-23T15:44:57.467Z,1.90
2023-09-23T15:47:24.366Z,2.20
2023-09-23T15:49:51.259Z,4.03
2023-09-23T15:52:18.599Z,2.28
2023-09-23T15:54:45.448Z,2.78
2023-09-23T15:57:12.531Z,2.15
2023-09-23T15:59:39.372Z,2.28
2023-09-23T16:02:06.384Z,2.45
2023-09-23T16:04:33.879Z,2.78
2023-09-23T16:07:01.002Z,4.25
2023-09-23T16:09:27.735Z,1.77
2023-09-23T16:11:54.516Z,1.80
2023-09-23T16:14:21.459Z,6.40
2023-09-23T16:16:48.947Z,4.20
2023-09-23T16:19:16.132Z,3.55
2023-09-23T16:21:43.038Z,1.80
2023-09-23T16:24:09.929Z,3.67
2023-09-23T16:26:36.927Z,2.92
2023-09-23T16:29:04.601Z,2.05
2023-09-23T16:31:31.510Z,2.33
2023-09-23T16:33:58.534Z,1.95
2023-09-23T16:36:26.110Z,0.98
2023-09-23T16:38:53.119Z,3.15
2023-09-23T16:41:20.306Z,2.17
2023-09-23T16:43:48.965Z,2.78
2023-09-23T16:46:16.094Z,3.03
2023-09-23T16:48:42.983Z,3.88
2023-09-23T16:51:10.037Z,2.42
2023-09-23T16:53:37.488Z,2.58
2023-09-23T16:56:04.751Z,3.80
2023-09-23T16:58:31.639Z,3.85
2023-09-23T17:00:58.630Z,3.15
2023-09-23T17:03:25.566Z,3.83
2023-09-23T17:05:55.530Z,5.00
2023-09-23T17:08:22.372Z,3.05
2023-09-23T17:10:49.265Z,2.60
2023-09-23T17:13:16.456Z,2.08
2023-09-23T17:15:43.263Z,2.15
2023-09-23T17:18:10.538Z,2.95
2023-09-23T17:20:37.718Z,2.13
2023-09-23T17:23:04.801Z,3.50
2023-09-23T17:25:31.692Z,4.15
2023-09-23T17:27:58.645Z,4.40
2023-09-23T17:30:25.394Z,3.67
2023-09-23T17:32:52.350Z,2.45
2023-09-23T17:35:19.765Z,4.88
2023-09-23T17:37:46.712Z,3.95
2023-09-23T17:40:15.731Z,3.53
2023-09-23T17:42:42.803Z,2.95
2023-09-23T17:45:10.144Z,3.78
2023-09-23T17:47:37.182Z,3.08
2023-09-23T17:50:05.314Z,2.72
2023-09-23T17:52:32.737Z,4.43
2023-09-23T17:55:00.288Z,3.72
2023-09-23T17:57:28.661Z,4.15
2023-09-23T17:59:55.609Z,7.75
2023-09-23T18:02:22.631Z,8.50
2023-09-23T18:04:49.617Z,2.92
2023-09-23T18:07:16.455Z,2.33
2023-09-23T18:09:44.002Z,3.55
2023-09-23T18:12:11.762Z,5.40
2023-09-23T18:14:38.893Z,4.47
2023-09-23T18:17:05.918Z,4.78
2023-09-23T18:19:37.489Z,6.28
2023-09-23T18:22:04.669Z,4.35
2023-09-23T18:24:32.651Z,7.72
2023-09-23T18:26:59.782Z,5.20
2023-09-23T18:29:26.829Z,6.35
2023-09-23T18:31:53.758Z,4.25
2023-09-23T18:34:21.561Z,5.13
2023-09-23T18:36:48.670Z,2.85
2023-09-23T18:39:15.627Z,2.10
2023-09-23T18:41:43.400Z,3.88
2023-09-23T18:44:10.427Z,4.43
2023-09-23T18:46:37.837Z,2.33
2023-09-23T18:49:04.813Z,5.65
2023-09-23T18:51:31.626Z,4.53
2023-09-23T18:53:58.718Z,8.32
2023-09-23T18:56:25.786Z,6.03
2023-09-23T18:58:52.605Z,7.40
2023-09-23T19:01:19.474Z,3.17
2023-09-23T19:03:46.480Z,3.05
2023-09-23T19:06:13.648Z,3.15
2023-09-23T19:08:40.608Z,4.68
2023-09-23T19:11:07.940Z,7.25
2023-09-23T19:13:35.673Z,6.35
2023-09-23T19:16:03.131Z,5.90
2023-09-23T19:18:30.112Z,6.65
2023-09-23T19:20:57.654Z,5.60
2023-09-23T19:23:25.789Z,5.07
2023-09-23T19:25:53.919Z,4.78
2023-09-23T19:28:22.424Z,5.20
2023-09-23T19:30:49.612Z,5.90
2023-09-23T19:33:17.934Z,5.72
2023-09-23T19:35:45.149Z,7.28
2023-09-23T19:38:12.237Z,5.93
2023-09-23T19:40:40.206Z,6.70
2023-09-23T19:43:07.265Z,6.57
2023-09-23T19:45:34.132Z,5.60
2023-09-23T19:48:01.342Z,6.03
2023-09-23T19:50:29.321Z,4.43
2023-09-23T19:53:00.736Z,3.92
2023-09-23T19:55:30.618Z,3.70
2023-09-23T19:57:57.399Z,4.97
2023-09-23T20:00:29.260Z,5.03
2023-09-23T20:02:56.905Z,3.47
2023-09-23T20:05:24.053Z,5.13
2023-09-23T20:07:50.919Z,7.38
2023-09-23T20:10:17.772Z,5.53
2023-09-23T20:12:44.698Z,6.45
2023-09-23T20:15:11.659Z,7.53
2023-09-23T20:17:40.062Z,8.52
2023-09-23T20:20:09.137Z,8.98
2023-09-23T20:22:36.174Z,4.95
2023-09-23T20:25:03.238Z,6.47
2023-09-23T20:27:30.484Z,6.97
2023-09-23T20:30:06.603Z,6.95
2023-09-23T20:32:39.387Z,6.50
2023-09-23T20:35:08.357Z,8.25
2023-09-23T20:37:39.464Z,6.35
2023-09-23T20:40:08.117Z,4.35
2023-09-23T20:42:35.913Z,8.10
2023-09-23T20:45:07.694Z,5.97
2023-09-23T20:47:36.344Z,6.05
2023-09-23T20:50:06.185Z,5.05
2023-09-23T20:52:34.107Z,5.03
2023-09-23T20:55:00.947Z,6.50
2023-09-23T20:57:30.750Z,4.88
2023-09-23T20:59:57.929Z,6.57
2023-09-23T21:02:24.992Z,7.18
2023-09-23T21:04:51.951Z,8.10
2023-09-23T21:07:20.648Z,5.53
2023-09-23T21:09:47.470Z,6.10
2023-09-23T21:12:14.540Z,6.72
2023-09-23T21:14:41.393Z,5.50
2023-09-23T21:17:08.440Z,6.47
2023-09-23T21:19:35.508Z,6.63
2023-09-23T21:22:02.639Z,4.18
2023-09-23T21:24:29.451Z,6.03
2023-09-23T21:26:57.182Z,8.45
2023-09-23T21:29:24.395Z,5.28
2023-09-23T21:31:51.223Z,6.22
2023-09-23T21:34:18.365Z,7.65
2023-09-23T21:36:45.995Z,7.43
2023-09-23T21:39:12.940Z,5.35
2023-09-23T21:41:39.760Z,7.97
2023-09-23T21:44:07.210Z,4.43
2023-09-23T21:46:34.326Z,7.50
2023-09-23T21:49:01.640Z,7.00
2023-09-23T21:51:33.694Z,5.88
2023-09-23T21:54:00.616Z,5.95
2023-09-23T21:56:41.488Z,6.13
2023-09-23T21:59:11.147Z,8.23
2023-09-23T22:01:38.143Z,5.97
2023-09-23T22:04:08.104Z,7.13
2023-09-23T22:06:36.889Z,5.15
2023-09-23T22:09:04.406Z,4.68
2023-09-23T22:11:34.328Z,6.32
2023-09-23T22:14:03.313Z,8.70
2023-09-23T22:16:30.165Z,6.38
2023-09-23T22:18:57.096Z,5.88
2023-09-23T22:21:24.354Z,8.13
2023-09-23T22:23:51.282Z,5.40
2023-09-23T22:26:18.248Z,7.07
2023-09-23T22:28:45.029Z,6.63
2023-09-23T22:31:12.511Z,4.68
2023-09-23T22:33:39.437Z,5.53
2023-09-23T22:36:09.013Z,6.53
2023-09-23T22:38:36.979Z,5.30
2023-09-23T22:41:04.388Z,7.88
2023-09-23T22:43:31.168Z,4.57
2023-09-23T22:46:00.134Z,6.70
2023-09-23T22:48:27.701Z,6.55
2023-09-23T22:50:54.799Z,5.63
2023-09-23T22:53:22.347Z,5.55
2023-09-23T22:55:49.970Z,6.35
2023-09-23T22:58:17.358Z,8.30
2023-09-23T23:00:44.270Z,5.70
2023-09-23T23:03:13.719Z,4.93
2023-09-23T23:05:41.630Z,6.15
2023-09-23T23:08:09.393Z,4.72
2023-09-23T23:10:36.388Z,8.27
2023-09-23T23:13:06.411Z,5.70
2023-09-23T23:15:37.015Z,6.45
2023-09-23T23:18:05.004Z,8.23
2023-09-23T23:20:35.650Z,5.53
2023-09-23T23:23:02.637Z,6.32
2023-09-23T23:25:29.415Z,3.63
2023-09-23T23:27:56.254Z,5.72
2023-09-23T23:30:23.270Z,7.13
2023-09-23T23:32:53.098Z,6.70
2023-09-23T23:35:23.042Z,7.25
2023-09-23T23:37:50.804Z,5.07
2023-09-23T23:40:21.249Z,5.47
2023-09-23T23:42:48.814Z,6.55
2023-09-23T23:45:17.203Z,6.68
2023-09-23T23:47:44.079Z,5.15
2023-09-23T23:50:11.486Z,5.40
2023-09-23T23:52:38.290Z,5.50
2023-09-23T23:55:05.424Z,6.13
2023-09-23T23:57:32.302Z,5.22
2023-09-23T23:59:59.156Z,9.98
